EXS3BT EGBB-LEMG
Flight info
| Callsign | EXS3BT |
|---|---|
| Flight time | 2h 39m |
| Altitude | 33000 |
| Route | CPT Y321 PEPIS Q41 SAM M195 MARUK N621 LELNA DCT NOVAN DCT DELOG DCT CRISA DCT VULPE |
| Aircraft | A321/M-SDE3FGHIRWY/LB1 |
Departure
| Time | 2026-05-06 20:12 |
|---|---|
| Airport | Birmingham Airport (EGBB) |
Arrival
| Time | 2026-05-06 22:51 |
|---|---|
| Airport | Málaga-Costa del Sol Airport (LEMG) |
| Time | Latitude | Longitude | Altitude | Speed | Heading |
|---|---|---|---|---|---|
| 2026-05-06 19:23 | 52.45205 | -1.73696 | 324 ft | 0 kts | 326° |
| 2026-05-06 19:59 | 52.45191 | -1.73680 | 323 ft | 4 kts | 326° |
| 2026-05-06 19:59 | 52.45172 | -1.73660 | 322 ft | 4 kts | 318° |
| 2026-05-06 19:59 | 52.45157 | -1.73627 | 323 ft | 4 kts | 283° |
| 2026-05-06 19:59 | 52.45158 | -1.73586 | 323 ft | 4 kts | 245° |
| 2026-05-06 20:00 | 52.45160 | -1.73576 | 322 ft | 4 kts | 236° |
| 2026-05-06 20:00 | 52.45147 | -1.73608 | 323 ft | 1 kts | 236° |
| 2026-05-06 20:00 | 52.45147 | -1.73609 | 323 ft | 0 kts | 236° |
| 2026-05-06 20:05 | 52.45141 | -1.73623 | 323 ft | 4 kts | 236° |
| 2026-05-06 20:05 | 52.45116 | -1.73681 | 323 ft | 7 kts | 236° |
| 2026-05-06 20:05 | 52.45103 | -1.73745 | 323 ft | 7 kts | 266° |
| 2026-05-06 20:05 | 52.45103 | -1.73751 | 323 ft | 1 kts | 267° |
| 2026-05-06 20:06 | 52.45091 | -1.73760 | 323 ft | 4 kts | 189° |
| 2026-05-06 20:06 | 52.45050 | -1.73752 | 323 ft | 6 kts | 162° |
| 2026-05-06 20:06 | 52.45019 | -1.73726 | 322 ft | 4 kts | 146° |
| 2026-05-06 20:06 | 52.44996 | -1.73700 | 323 ft | 4 kts | 146° |
| 2026-05-06 20:07 | 52.44966 | -1.73667 | 322 ft | 6 kts | 146° |
| 2026-05-06 20:07 | 52.44921 | -1.73640 | 322 ft | 8 kts | 182° |
| 2026-05-06 20:07 | 52.44866 | -1.73673 | 323 ft | 9 kts | 202° |
| 2026-05-06 20:07 | 52.44803 | -1.73704 | 323 ft | 9 kts | 193° |
| 2026-05-06 20:08 | 52.44749 | -1.73725 | 322 ft | 7 kts | 191° |
| 2026-05-06 20:08 | 52.44703 | -1.73714 | 323 ft | 8 kts | 157° |
| 2026-05-06 20:08 | 52.44641 | -1.73647 | 323 ft | 14 kts | 147° |
| 2026-05-06 20:08 | 52.44550 | -1.73548 | 323 ft | 16 kts | 146° |
| 2026-05-06 20:09 | 52.44468 | -1.73458 | 323 ft | 11 kts | 146° |
| 2026-05-06 20:09 | 52.44408 | -1.73399 | 323 ft | 9 kts | 167° |
| 2026-05-06 20:09 | 52.44363 | -1.73444 | 322 ft | 7 kts | 229° |
| 2026-05-06 20:09 | 52.44342 | -1.73497 | 324 ft | 3 kts | 238° |
| 2026-05-06 20:10 | 52.44339 | -1.73505 | 324 ft | 1 kts | 238° |
| 2026-05-06 20:10 | 52.44333 | -1.73522 | 325 ft | 3 kts | 238° |
| 2026-05-06 20:10 | 52.44316 | -1.73580 | 322 ft | 10 kts | 262° |
| 2026-05-06 20:10 | 52.44357 | -1.73659 | 323 ft | 5 kts | 326° |
| 2026-05-06 20:11 | 52.44385 | -1.73690 | 324 ft | 8 kts | 326° |
| 2026-05-06 20:11 | 52.44598 | -1.73927 | 324 ft | 73 kts | 326° |
| 2026-05-06 20:11 | 52.45197 | -1.74589 | 329 ft | 132 kts | 326° |
| 2026-05-06 20:11 | 52.46093 | -1.75577 | 391 ft | 171 kts | 326° |
| 2026-05-06 20:12 | 52.47036 | -1.76630 | 1151 ft | 159 kts | 327° |
| 2026-05-06 20:12 | 52.47965 | -1.77686 | 1766 ft | 163 kts | 327° |
| 2026-05-06 20:12 | 52.48947 | -1.78781 | 2082 ft | 181 kts | 327° |
| 2026-05-06 20:12 | 52.50045 | -1.79998 | 2230 ft | 201 kts | 328° |
| 2026-05-06 20:13 | 52.51206 | -1.81466 | 2400 ft | 223 kts | 311° |
| 2026-05-06 20:13 | 52.51848 | -1.83839 | 2850 ft | 235 kts | 276° |
| 2026-05-06 20:13 | 52.51589 | -1.86493 | 3426 ft | 241 kts | 249° |
| 2026-05-06 20:13 | 52.50868 | -1.88982 | 4114 ft | 242 kts | 239° |
| 2026-05-06 20:14 | 52.49813 | -1.91149 | 4682 ft | 251 kts | 222° |
| 2026-05-06 20:14 | 52.48276 | -1.92734 | 5029 ft | 270 kts | 205° |
| 2026-05-06 20:14 | 52.46549 | -1.94016 | 5711 ft | 274 kts | 204° |
| 2026-05-06 20:14 | 52.44803 | -1.95298 | 6417 ft | 276 kts | 205° |
| 2026-05-06 20:15 | 52.43045 | -1.96586 | 7129 ft | 278 kts | 205° |
| 2026-05-06 20:15 | 52.41276 | -1.97884 | 7809 ft | 281 kts | 205° |
| 2026-05-06 20:15 | 52.39484 | -1.99206 | 8467 ft | 283 kts | 205° |
| 2026-05-06 20:15 | 52.37681 | -2.00538 | 9115 ft | 287 kts | 205° |
| 2026-05-06 20:16 | 52.35859 | -2.01896 | 9733 ft | 289 kts | 205° |
| 2026-05-06 20:16 | 52.34037 | -2.03255 | 10227 ft | 298 kts | 206° |
| 2026-05-06 20:16 | 52.32080 | -2.04696 | 10356 ft | 319 kts | 203° |
| 2026-05-06 20:16 | 52.29829 | -2.05520 | 10488 ft | 340 kts | 181° |
| 2026-05-06 20:17 | 52.27487 | -2.04788 | 10691 ft | 357 kts | 156° |
| 2026-05-06 20:17 | 52.25240 | -2.02861 | 11181 ft | 363 kts | 151° |
| 2026-05-06 20:17 | 52.23046 | -2.00893 | 11744 ft | 367 kts | 151° |
| 2026-05-06 20:17 | 52.20796 | -1.98874 | 12288 ft | 371 kts | 152° |
| 2026-05-06 20:18 | 52.18524 | -1.96844 | 12853 ft | 374 kts | 152° |
| 2026-05-06 20:18 | 52.16229 | -1.94802 | 13426 ft | 377 kts | 152° |
| 2026-05-06 20:18 | 52.13914 | -1.92751 | 14003 ft | 380 kts | 152° |
| 2026-05-06 20:18 | 52.11581 | -1.90688 | 14539 ft | 383 kts | 152° |
| 2026-05-06 20:19 | 52.09230 | -1.88609 | 15063 ft | 386 kts | 152° |
| 2026-05-06 20:19 | 52.06860 | -1.86519 | 15591 ft | 389 kts | 152° |
| 2026-05-06 20:19 | 52.04474 | -1.84417 | 16114 ft | 391 kts | 152° |
| 2026-05-06 20:19 | 52.02070 | -1.82304 | 16597 ft | 394 kts | 153° |
| 2026-05-06 20:20 | 51.99653 | -1.80182 | 17097 ft | 396 kts | 153° |
| 2026-05-06 20:20 | 51.97221 | -1.78044 | 17549 ft | 399 kts | 153° |
| 2026-05-06 20:20 | 51.94788 | -1.75905 | 18004 ft | 401 kts | 153° |
| 2026-05-06 20:20 | 51.92288 | -1.73875 | 18441 ft | 403 kts | 161° |
| 2026-05-06 20:21 | 51.89563 | -1.72902 | 18862 ft | 401 kts | 179° |
| 2026-05-06 20:21 | 51.86784 | -1.73159 | 19269 ft | 401 kts | 189° |
| 2026-05-06 20:21 | 51.84006 | -1.73721 | 19692 ft | 403 kts | 189° |
| 2026-05-06 20:21 | 51.81219 | -1.74304 | 20094 ft | 406 kts | 189° |
| 2026-05-06 20:22 | 51.78413 | -1.74900 | 20517 ft | 408 kts | 189° |
| 2026-05-06 20:22 | 51.75592 | -1.75498 | 20918 ft | 410 kts | 189° |
| 2026-05-06 20:22 | 51.72752 | -1.76094 | 21313 ft | 412 kts | 189° |
| 2026-05-06 20:22 | 51.69897 | -1.76683 | 21695 ft | 414 kts | 189° |
| 2026-05-06 20:23 | 51.67028 | -1.77267 | 22083 ft | 416 kts | 189° |
| 2026-05-06 20:23 | 51.64145 | -1.77854 | 22455 ft | 418 kts | 189° |
| 2026-05-06 20:23 | 51.61254 | -1.78446 | 22824 ft | 420 kts | 189° |
| 2026-05-06 20:23 | 51.58345 | -1.79044 | 23190 ft | 422 kts | 189° |
| 2026-05-06 20:24 | 51.55423 | -1.79643 | 23529 ft | 424 kts | 189° |
| 2026-05-06 20:24 | 51.52487 | -1.80246 | 23878 ft | 427 kts | 189° |
| 2026-05-06 20:24 | 51.49536 | -1.80852 | 24207 ft | 428 kts | 189° |
| 2026-05-06 20:24 | 51.46572 | -1.81456 | 24540 ft | 430 kts | 189° |
| 2026-05-06 20:25 | 51.43595 | -1.82059 | 24854 ft | 432 kts | 189° |
| 2026-05-06 20:25 | 51.40606 | -1.82661 | 25165 ft | 434 kts | 189° |
| 2026-05-06 20:25 | 51.37605 | -1.83265 | 25474 ft | 436 kts | 189° |
| 2026-05-06 20:25 | 51.34592 | -1.83873 | 25778 ft | 437 kts | 189° |
| 2026-05-06 20:26 | 51.31568 | -1.84484 | 26080 ft | 439 kts | 189° |
| 2026-05-06 20:26 | 51.28539 | -1.85094 | 26364 ft | 441 kts | 189° |
| 2026-05-06 20:26 | 51.25492 | -1.85706 | 26650 ft | 442 kts | 189° |
| 2026-05-06 20:26 | 51.22435 | -1.86319 | 26923 ft | 444 kts | 189° |
| 2026-05-06 20:27 | 51.19359 | -1.86936 | 27193 ft | 445 kts | 189° |
| 2026-05-06 20:27 | 51.16285 | -1.87559 | 27447 ft | 447 kts | 189° |
| 2026-05-06 20:27 | 51.13193 | -1.88184 | 27704 ft | 449 kts | 189° |
| 2026-05-06 20:27 | 51.10088 | -1.88805 | 27956 ft | 450 kts | 189° |
| 2026-05-06 20:28 | 51.06972 | -1.89428 | 28203 ft | 452 kts | 189° |
| 2026-05-06 20:28 | 51.03845 | -1.90053 | 28450 ft | 453 kts | 189° |
| 2026-05-06 20:28 | 51.00708 | -1.90679 | 28680 ft | 455 kts | 189° |
| 2026-05-06 20:28 | 50.97570 | -1.91305 | 28916 ft | 457 kts | 189° |
| 2026-05-06 20:29 | 50.94878 | -1.91841 | 29186 ft | 456 kts | 189° |
| 2026-05-06 20:29 | 50.91739 | -1.92464 | 29506 ft | 455 kts | 189° |
| 2026-05-06 20:29 | 50.88598 | -1.93087 | 29813 ft | 455 kts | 189° |
| 2026-05-06 20:29 | 50.85461 | -1.93707 | 30124 ft | 454 kts | 189° |
| 2026-05-06 20:30 | 50.82328 | -1.94323 | 30421 ft | 453 kts | 189° |
| 2026-05-06 20:30 | 50.76072 | -1.95552 | 30996 ft | 452 kts | 188° |
| 2026-05-06 20:30 | 50.72948 | -1.96164 | 31282 ft | 452 kts | 188° |
| 2026-05-06 20:31 | 50.69827 | -1.96775 | 31557 ft | 452 kts | 188° |
| 2026-05-06 20:31 | 50.66710 | -1.97385 | 31836 ft | 452 kts | 188° |
| 2026-05-06 20:31 | 50.63592 | -1.97997 | 32112 ft | 451 kts | 188° |
| 2026-05-06 20:31 | 50.60477 | -1.98610 | 32391 ft | 451 kts | 188° |
| 2026-05-06 20:32 | 50.57367 | -1.99222 | 32661 ft | 450 kts | 188° |
| 2026-05-06 20:32 | 50.54261 | -1.99831 | 32910 ft | 450 kts | 188° |
| 2026-05-06 20:32 | 50.51158 | -2.00436 | 32996 ft | 448 kts | 188° |
| 2026-05-06 20:33 | 50.45036 | -2.01628 | 33009 ft | 445 kts | 188° |
| 2026-05-06 20:33 | 50.38890 | -2.02817 | 33008 ft | 445 kts | 188° |
| 2026-05-06 20:34 | 50.32745 | -2.04004 | 33008 ft | 445 kts | 188° |
| 2026-05-06 20:34 | 50.26591 | -2.05195 | 33008 ft | 445 kts | 188° |
| 2026-05-06 20:35 | 50.20446 | -2.06391 | 33007 ft | 445 kts | 188° |
| 2026-05-06 20:35 | 50.14306 | -2.07578 | 33006 ft | 445 kts | 188° |
| 2026-05-06 20:36 | 50.08161 | -2.08760 | 33002 ft | 445 kts | 188° |
| 2026-05-06 20:36 | 50.02483 | -2.09843 | 32999 ft | 444 kts | 188° |
| 2026-05-06 20:40 | 50.01639 | -2.10004 | 33000 ft | 445 kts | 188° |
| 2026-05-06 20:41 | 49.95597 | -2.11881 | 33000 ft | 443 kts | 198° |
| 2026-05-06 20:41 | 49.89705 | -2.14657 | 32997 ft | 443 kts | 198° |
| 2026-05-06 20:42 | 49.83800 | -2.17404 | 32993 ft | 443 kts | 198° |
| 2026-05-06 20:42 | 49.77896 | -2.20152 | 32995 ft | 443 kts | 198° |
| 2026-05-06 20:43 | 49.71987 | -2.22897 | 32995 ft | 443 kts | 198° |
| 2026-05-06 20:43 | 49.66078 | -2.25631 | 32982 ft | 443 kts | 198° |
| 2026-05-06 20:44 | 49.60169 | -2.28360 | 32995 ft | 443 kts | 198° |
| 2026-05-06 20:44 | 49.54265 | -2.31085 | 32995 ft | 444 kts | 198° |
| 2026-05-06 20:45 | 49.48342 | -2.33803 | 32999 ft | 444 kts | 198° |
| 2026-05-06 20:45 | 49.42423 | -2.36517 | 33006 ft | 444 kts | 198° |
| 2026-05-06 20:46 | 49.36506 | -2.39234 | 33008 ft | 444 kts | 198° |
| 2026-05-06 20:46 | 49.31588 | -2.41484 | 33008 ft | 444 kts | 198° |
| 2026-05-06 20:47 | 49.25660 | -2.44176 | 33009 ft | 445 kts | 198° |
| 2026-05-06 20:47 | 49.19725 | -2.46863 | 33009 ft | 445 kts | 198° |
| 2026-05-06 20:48 | 49.15846 | -2.48618 | 33010 ft | 445 kts | 198° |
| 2026-05-06 20:48 | 49.09912 | -2.51306 | 33009 ft | 445 kts | 198° |
| 2026-05-06 20:49 | 49.03973 | -2.53979 | 33009 ft | 445 kts | 198° |
| 2026-05-06 20:49 | 48.98028 | -2.56645 | 33007 ft | 445 kts | 198° |
| 2026-05-06 20:50 | 48.92086 | -2.59313 | 33008 ft | 446 kts | 198° |
| 2026-05-06 20:50 | 48.86137 | -2.61987 | 33007 ft | 446 kts | 198° |
| 2026-05-06 20:51 | 48.80183 | -2.64650 | 33006 ft | 446 kts | 198° |
| 2026-05-06 20:51 | 48.74229 | -2.67302 | 33007 ft | 446 kts | 198° |
| 2026-05-06 20:52 | 48.68264 | -2.69949 | 33008 ft | 447 kts | 198° |
| 2026-05-06 20:52 | 48.62294 | -2.72599 | 33008 ft | 447 kts | 198° |
| 2026-05-06 20:53 | 48.56326 | -2.75244 | 33011 ft | 447 kts | 198° |
| 2026-05-06 20:53 | 48.50348 | -2.77884 | 33012 ft | 448 kts | 198° |
| 2026-05-06 20:54 | 48.44372 | -2.80515 | 33013 ft | 447 kts | 198° |
| 2026-05-06 20:54 | 48.38397 | -2.83133 | 33013 ft | 447 kts | 197° |
| 2026-05-06 20:55 | 48.32422 | -2.85744 | 33009 ft | 447 kts | 197° |
| 2026-05-06 20:55 | 48.26484 | -2.88341 | 33010 ft | 447 kts | 198° |
| 2026-05-06 20:56 | 48.20504 | -2.90947 | 33010 ft | 448 kts | 197° |
| 2026-05-06 20:56 | 48.14519 | -2.93549 | 33008 ft | 448 kts | 197° |
| 2026-05-06 20:57 | 48.08536 | -2.96148 | 33008 ft | 448 kts | 198° |
| 2026-05-06 20:57 | 48.02556 | -2.98747 | 33008 ft | 448 kts | 197° |
| 2026-05-06 20:58 | 47.96570 | -3.01329 | 33001 ft | 447 kts | 197° |
| 2026-05-06 20:58 | 47.90580 | -3.03889 | 32995 ft | 448 kts | 197° |
| 2026-05-06 20:59 | 47.84586 | -3.06465 | 32994 ft | 448 kts | 197° |
| 2026-05-06 20:59 | 47.78590 | -3.09043 | 32994 ft | 449 kts | 197° |
| 2026-05-06 21:00 | 47.72591 | -3.11606 | 32995 ft | 449 kts | 198° |
| 2026-05-06 21:00 | 47.66595 | -3.14168 | 32992 ft | 449 kts | 198° |
| 2026-05-06 21:01 | 47.60594 | -3.16720 | 32993 ft | 449 kts | 197° |
| 2026-05-06 21:01 | 47.54590 | -3.19258 | 32994 ft | 449 kts | 197° |
| 2026-05-06 21:02 | 47.48588 | -3.21797 | 32987 ft | 448 kts | 197° |
| 2026-05-06 21:02 | 47.42590 | -3.24324 | 32982 ft | 448 kts | 197° |
| 2026-05-06 21:03 | 47.36589 | -3.26854 | 32981 ft | 449 kts | 197° |
| 2026-05-06 21:03 | 47.30586 | -3.29388 | 32996 ft | 448 kts | 197° |
| 2026-05-06 21:04 | 47.24582 | -3.31908 | 32989 ft | 448 kts | 197° |
| 2026-05-06 21:04 | 47.18622 | -3.34402 | 32999 ft | 448 kts | 197° |
| 2026-05-06 21:05 | 47.12635 | -3.36899 | 33010 ft | 446 kts | 197° |
| 2026-05-06 21:05 | 47.06665 | -3.39381 | 33009 ft | 446 kts | 197° |
| 2026-05-06 21:06 | 47.00701 | -3.41857 | 33008 ft | 445 kts | 197° |
| 2026-05-06 21:06 | 46.97909 | -3.43318 | 34173 ft | 394 kts | 207° |
| 2026-05-06 21:06 | 46.95421 | -3.45077 | 34637 ft | 400 kts | 202° |
| 2026-05-06 21:07 | 46.89977 | -3.47159 | 34733 ft | 408 kts | 192° |
| 2026-05-06 21:07 | 46.87180 | -3.47905 | 34859 ft | 409 kts | 192° |
| 2026-05-06 21:07 | 46.84372 | -3.48710 | 34433 ft | 416 kts | 193° |
| 2026-05-06 21:07 | 46.81489 | -3.49679 | 33165 ft | 434 kts | 196° |
| 2026-05-06 21:08 | 46.78558 | -3.50820 | 32494 ft | 437 kts | 197° |
| 2026-05-06 21:08 | 46.75623 | -3.52060 | 32199 ft | 441 kts | 198° |
| 2026-05-06 21:08 | 46.72670 | -3.53342 | 32006 ft | 444 kts | 198° |
| 2026-05-06 21:09 | 46.66741 | -3.55882 | 32005 ft | 445 kts | 198° |
| 2026-05-06 21:09 | 46.60791 | -3.58344 | 32008 ft | 445 kts | 197° |
| 2026-05-06 21:10 | 46.54826 | -3.60755 | 32008 ft | 445 kts | 197° |
| 2026-05-06 21:10 | 46.48862 | -3.63155 | 32008 ft | 445 kts | 197° |
| 2026-05-06 21:11 | 46.42908 | -3.65581 | 32008 ft | 444 kts | 197° |
| 2026-05-06 21:11 | 46.36955 | -3.68005 | 32008 ft | 444 kts | 197° |
| 2026-05-06 21:12 | 46.30951 | -3.70124 | 32007 ft | 446 kts | 188° |
| 2026-05-06 21:12 | 46.24785 | -3.71048 | 32008 ft | 446 kts | 187° |
| 2026-05-06 21:13 | 46.18611 | -3.71953 | 32008 ft | 446 kts | 187° |
| 2026-05-06 21:13 | 46.12440 | -3.72855 | 32017 ft | 446 kts | 187° |
| 2026-05-06 21:14 | 46.06310 | -3.73770 | 32017 ft | 446 kts | 187° |
| 2026-05-06 21:14 | 46.00145 | -3.74700 | 32017 ft | 446 kts | 187° |
| 2026-05-06 21:15 | 45.93981 | -3.75612 | 32017 ft | 445 kts | 187° |
| 2026-05-06 21:15 | 45.87812 | -3.76523 | 32017 ft | 445 kts | 187° |
| 2026-05-06 21:16 | 45.81649 | -3.77437 | 32018 ft | 445 kts | 187° |
| 2026-05-06 21:16 | 45.75488 | -3.78352 | 32017 ft | 445 kts | 187° |
| 2026-05-06 21:17 | 45.69325 | -3.79256 | 32018 ft | 445 kts | 187° |
| 2026-05-06 21:17 | 45.63157 | -3.80147 | 32017 ft | 445 kts | 187° |
| 2026-05-06 21:18 | 45.56994 | -3.81045 | 32026 ft | 445 kts | 187° |
| 2026-05-06 21:18 | 45.50831 | -3.81951 | 32026 ft | 445 kts | 187° |
| 2026-05-06 21:19 | 45.44671 | -3.82846 | 32027 ft | 445 kts | 187° |
| 2026-05-06 21:19 | 45.38507 | -3.83733 | 32027 ft | 445 kts | 187° |
| 2026-05-06 21:20 | 45.32349 | -3.84611 | 32026 ft | 445 kts | 187° |
| 2026-05-06 21:20 | 45.26192 | -3.85511 | 32026 ft | 445 kts | 187° |
| 2026-05-06 21:21 | 45.20041 | -3.86405 | 32026 ft | 444 kts | 187° |
| 2026-05-06 21:21 | 45.13888 | -3.87290 | 32026 ft | 444 kts | 187° |
| 2026-05-06 21:22 | 45.07735 | -3.88168 | 32027 ft | 444 kts | 187° |
| 2026-05-06 21:22 | 45.01585 | -3.89042 | 32026 ft | 444 kts | 188° |
| 2026-05-06 21:23 | 44.95446 | -3.89918 | 32027 ft | 443 kts | 188° |
| 2026-05-06 21:23 | 44.89307 | -3.90803 | 32026 ft | 443 kts | 188° |
| 2026-05-06 21:24 | 44.83171 | -3.91671 | 32023 ft | 443 kts | 187° |
| 2026-05-06 21:24 | 44.77044 | -3.92531 | 32026 ft | 442 kts | 187° |
| 2026-05-06 21:25 | 44.70917 | -3.93396 | 32027 ft | 442 kts | 188° |
| 2026-05-06 21:25 | 44.64800 | -3.94265 | 32027 ft | 442 kts | 187° |
| 2026-05-06 21:26 | 44.58682 | -3.95132 | 32027 ft | 442 kts | 187° |
| 2026-05-06 21:26 | 44.52568 | -3.95993 | 32026 ft | 441 kts | 187° |
| 2026-05-06 21:27 | 44.46461 | -3.96850 | 32026 ft | 441 kts | 187° |
| 2026-05-06 21:27 | 44.40358 | -3.97702 | 32025 ft | 441 kts | 187° |
| 2026-05-06 21:28 | 44.34255 | -3.98550 | 32027 ft | 440 kts | 187° |
| 2026-05-06 21:28 | 44.28149 | -3.99341 | 32027 ft | 440 kts | 187° |
| 2026-05-06 21:29 | 44.22041 | -4.00019 | 32026 ft | 441 kts | 186° |
| 2026-05-06 21:29 | 44.15934 | -4.00687 | 32026 ft | 440 kts | 186° |
| 2026-05-06 21:30 | 44.09825 | -4.01386 | 32027 ft | 440 kts | 186° |
| 2026-05-06 21:30 | 44.04757 | -4.01965 | 32026 ft | 440 kts | 186° |
| 2026-05-06 21:31 | 43.97663 | -4.02767 | 32026 ft | 440 kts | 186° |
| 2026-05-06 21:31 | 43.91564 | -4.03461 | 32026 ft | 440 kts | 186° |
| 2026-05-06 21:32 | 43.85464 | -4.04149 | 32026 ft | 440 kts | 186° |
| 2026-05-06 21:32 | 43.77341 | -4.05069 | 32027 ft | 440 kts | 186° |
| 2026-05-06 21:33 | 43.71242 | -4.05762 | 32026 ft | 439 kts | 186° |
| 2026-05-06 21:33 | 43.65146 | -4.06445 | 32026 ft | 440 kts | 186° |
| 2026-05-06 21:34 | 43.59048 | -4.07123 | 32026 ft | 439 kts | 186° |
| 2026-05-06 21:34 | 43.52961 | -4.07808 | 32026 ft | 439 kts | 187° |
| 2026-05-06 21:35 | 43.46871 | -4.08495 | 32026 ft | 439 kts | 186° |
| 2026-05-06 21:35 | 43.40782 | -4.09170 | 32025 ft | 439 kts | 187° |
| 2026-05-06 21:36 | 43.34698 | -4.09843 | 32026 ft | 438 kts | 187° |
| 2026-05-06 21:36 | 43.28617 | -4.10520 | 32026 ft | 438 kts | 187° |
| 2026-05-06 21:37 | 43.22541 | -4.11196 | 32027 ft | 438 kts | 187° |
| 2026-05-06 21:37 | 43.16515 | -4.11873 | 32027 ft | 437 kts | 187° |
| 2026-05-06 21:38 | 43.10452 | -4.12540 | 32026 ft | 437 kts | 187° |
| 2026-05-06 21:38 | 43.04388 | -4.13199 | 32019 ft | 437 kts | 187° |
| 2026-05-06 21:39 | 42.98333 | -4.13873 | 32017 ft | 436 kts | 187° |
| 2026-05-06 21:39 | 42.92280 | -4.14542 | 32017 ft | 436 kts | 187° |
| 2026-05-06 21:40 | 42.86229 | -4.15195 | 32017 ft | 436 kts | 187° |
| 2026-05-06 21:40 | 42.80180 | -4.15850 | 32006 ft | 436 kts | 187° |
| 2026-05-06 21:41 | 42.74139 | -4.16521 | 32007 ft | 435 kts | 187° |
| 2026-05-06 21:41 | 42.68102 | -4.17178 | 32008 ft | 435 kts | 187° |
| 2026-05-06 21:42 | 42.62065 | -4.17829 | 32007 ft | 435 kts | 187° |
| 2026-05-06 21:42 | 42.56034 | -4.18484 | 32008 ft | 435 kts | 187° |
| 2026-05-06 21:43 | 42.50007 | -4.19141 | 31999 ft | 434 kts | 187° |
| 2026-05-06 21:43 | 42.44025 | -4.19791 | 31999 ft | 434 kts | 187° |
| 2026-05-06 21:44 | 42.38001 | -4.20446 | 31998 ft | 434 kts | 187° |
| 2026-05-06 21:44 | 42.31976 | -4.21089 | 31987 ft | 434 kts | 187° |
| 2026-05-06 21:45 | 42.25951 | -4.21729 | 31992 ft | 434 kts | 187° |
| 2026-05-06 21:45 | 42.19925 | -4.22375 | 31991 ft | 434 kts | 187° |
| 2026-05-06 21:46 | 42.13906 | -4.23020 | 31991 ft | 434 kts | 187° |
| 2026-05-06 21:46 | 42.07884 | -4.23666 | 31991 ft | 434 kts | 187° |
| 2026-05-06 21:47 | 42.01864 | -4.24310 | 31982 ft | 434 kts | 187° |
| 2026-05-06 21:47 | 41.95843 | -4.24955 | 31980 ft | 434 kts | 187° |
| 2026-05-06 21:48 | 41.89856 | -4.25588 | 31978 ft | 434 kts | 187° |
| 2026-05-06 21:48 | 41.83835 | -4.26227 | 31979 ft | 434 kts | 187° |
| 2026-05-06 21:49 | 41.77806 | -4.26874 | 31978 ft | 434 kts | 187° |
| 2026-05-06 21:49 | 41.71783 | -4.27509 | 31981 ft | 434 kts | 187° |
| 2026-05-06 21:50 | 41.65765 | -4.28136 | 31971 ft | 434 kts | 187° |
| 2026-05-06 21:50 | 41.59751 | -4.28765 | 31971 ft | 434 kts | 187° |
| 2026-05-06 21:51 | 41.53735 | -4.29390 | 31971 ft | 434 kts | 187° |
| 2026-05-06 21:51 | 41.47719 | -4.30018 | 31971 ft | 433 kts | 187° |
| 2026-05-06 21:52 | 41.41712 | -4.30653 | 31972 ft | 433 kts | 187° |
| 2026-05-06 21:52 | 41.35707 | -4.31291 | 31971 ft | 433 kts | 187° |
| 2026-05-06 21:53 | 41.29701 | -4.31919 | 31971 ft | 432 kts | 187° |
| 2026-05-06 21:53 | 41.23702 | -4.32541 | 32025 ft | 433 kts | 187° |
| 2026-05-06 21:54 | 41.20739 | -4.32847 | 32332 ft | 432 kts | 187° |
| 2026-05-06 21:54 | 41.17704 | -4.33162 | 32658 ft | 432 kts | 188° |
| 2026-05-06 21:54 | 41.14713 | -4.33473 | 32916 ft | 431 kts | 188° |
| 2026-05-06 21:54 | 41.11726 | -4.33783 | 32962 ft | 430 kts | 188° |
| 2026-05-06 21:55 | 41.05792 | -4.34398 | 32958 ft | 430 kts | 188° |
| 2026-05-06 21:55 | 40.99827 | -4.35009 | 32963 ft | 430 kts | 188° |
| 2026-05-06 21:56 | 40.93866 | -4.35621 | 32963 ft | 430 kts | 188° |
| 2026-05-06 21:56 | 40.87906 | -4.36237 | 32961 ft | 430 kts | 188° |
| 2026-05-06 21:57 | 40.81947 | -4.36849 | 32956 ft | 429 kts | 188° |
| 2026-05-06 21:57 | 40.75993 | -4.37459 | 32952 ft | 429 kts | 188° |
| 2026-05-06 21:58 | 40.70043 | -4.38073 | 32946 ft | 429 kts | 188° |
| 2026-05-06 21:58 | 40.64086 | -4.38681 | 32952 ft | 430 kts | 188° |
| 2026-05-06 21:59 | 40.58128 | -4.39285 | 32949 ft | 430 kts | 188° |
| 2026-05-06 21:59 | 40.52164 | -4.39891 | 32950 ft | 430 kts | 188° |
| 2026-05-06 22:00 | 40.46206 | -4.40494 | 32948 ft | 429 kts | 188° |
| 2026-05-06 22:00 | 40.40297 | -4.41097 | 32943 ft | 429 kts | 188° |
| 2026-05-06 22:01 | 40.34350 | -4.41701 | 32941 ft | 428 kts | 188° |
| 2026-05-06 22:01 | 40.28400 | -4.42298 | 32935 ft | 429 kts | 188° |
| 2026-05-06 22:02 | 40.22457 | -4.42896 | 32934 ft | 429 kts | 188° |
| 2026-05-06 22:02 | 40.16509 | -4.43499 | 32934 ft | 429 kts | 188° |
| 2026-05-06 22:03 | 40.10559 | -4.44103 | 32935 ft | 429 kts | 188° |
| 2026-05-06 22:03 | 40.04601 | -4.44707 | 32941 ft | 429 kts | 188° |
| 2026-05-06 22:04 | 39.98641 | -4.45301 | 32943 ft | 429 kts | 188° |
| 2026-05-06 22:04 | 39.92681 | -4.45891 | 32948 ft | 429 kts | 188° |
| 2026-05-06 22:05 | 39.86717 | -4.46485 | 32951 ft | 429 kts | 188° |
| 2026-05-06 22:05 | 39.80767 | -4.47079 | 32944 ft | 429 kts | 188° |
| 2026-05-06 22:06 | 39.74817 | -4.47676 | 32942 ft | 429 kts | 188° |
| 2026-05-06 22:06 | 39.68876 | -4.48270 | 32941 ft | 428 kts | 188° |
| 2026-05-06 22:07 | 39.62943 | -4.48863 | 32937 ft | 427 kts | 188° |
| 2026-05-06 22:07 | 39.57014 | -4.49448 | 32932 ft | 427 kts | 188° |
| 2026-05-06 22:08 | 39.51097 | -4.50029 | 32930 ft | 426 kts | 188° |
| 2026-05-06 22:08 | 39.45185 | -4.50607 | 32930 ft | 426 kts | 188° |
| 2026-05-06 22:09 | 39.39279 | -4.51188 | 32931 ft | 426 kts | 189° |
| 2026-05-06 22:09 | 39.33415 | -4.51768 | 32933 ft | 425 kts | 188° |
| 2026-05-06 22:10 | 39.27525 | -4.52350 | 32934 ft | 424 kts | 188° |
| 2026-05-06 22:10 | 39.21637 | -4.52927 | 32935 ft | 424 kts | 189° |
| 2026-05-06 22:11 | 39.15765 | -4.53506 | 32928 ft | 423 kts | 189° |
| 2026-05-06 22:11 | 39.09905 | -4.54082 | 32927 ft | 422 kts | 189° |
| 2026-05-06 22:12 | 39.04051 | -4.54660 | 32923 ft | 421 kts | 189° |
| 2026-05-06 22:12 | 38.98212 | -4.55217 | 32922 ft | 420 kts | 189° |
| 2026-05-06 22:13 | 38.92388 | -4.55827 | 32920 ft | 418 kts | 191° |
| 2026-05-06 22:13 | 38.86657 | -4.56940 | 32923 ft | 416 kts | 194° |
| 2026-05-06 22:14 | 38.80967 | -4.58268 | 32913 ft | 416 kts | 194° |
| 2026-05-06 22:14 | 38.75305 | -4.59524 | 32911 ft | 416 kts | 194° |
| 2026-05-06 22:15 | 38.69597 | -4.60714 | 32912 ft | 415 kts | 193° |
| 2026-05-06 22:15 | 38.63898 | -4.61871 | 32907 ft | 415 kts | 193° |
| 2026-05-06 22:16 | 38.58204 | -4.63042 | 32907 ft | 414 kts | 194° |
| 2026-05-06 22:16 | 38.52523 | -4.64221 | 32910 ft | 413 kts | 194° |
| 2026-05-06 22:17 | 38.46846 | -4.65396 | 32911 ft | 413 kts | 194° |
| 2026-05-06 22:17 | 38.41171 | -4.66566 | 32908 ft | 413 kts | 194° |
| 2026-05-06 22:18 | 38.35499 | -4.67727 | 32901 ft | 413 kts | 194° |
| 2026-05-06 22:18 | 38.29825 | -4.68894 | 32912 ft | 412 kts | 194° |
| 2026-05-06 22:19 | 38.24160 | -4.70059 | 32771 ft | 413 kts | 194° |
| 2026-05-06 22:19 | 38.21330 | -4.70638 | 32520 ft | 412 kts | 194° |
| 2026-05-06 22:19 | 38.18503 | -4.71216 | 32269 ft | 412 kts | 194° |
| 2026-05-06 22:20 | 38.15676 | -4.71796 | 32020 ft | 411 kts | 194° |
| 2026-05-06 22:20 | 38.12845 | -4.72376 | 31770 ft | 412 kts | 193° |
| 2026-05-06 22:20 | 38.10013 | -4.72955 | 31521 ft | 412 kts | 193° |
| 2026-05-06 22:20 | 38.07186 | -4.73531 | 31269 ft | 411 kts | 193° |
| 2026-05-06 22:21 | 38.04366 | -4.74101 | 31020 ft | 409 kts | 193° |
| 2026-05-06 22:21 | 38.01603 | -4.74662 | 30733 ft | 405 kts | 193° |
| 2026-05-06 22:21 | 37.98835 | -4.75225 | 30226 ft | 401 kts | 193° |
| 2026-05-06 22:21 | 37.96093 | -4.75786 | 29727 ft | 397 kts | 194° |
| 2026-05-06 22:22 | 37.93378 | -4.76338 | 29227 ft | 394 kts | 194° |
| 2026-05-06 22:22 | 37.90686 | -4.76884 | 28738 ft | 390 kts | 194° |
| 2026-05-06 22:22 | 37.88019 | -4.77425 | 28252 ft | 386 kts | 193° |
| 2026-05-06 22:22 | 37.85377 | -4.77957 | 27768 ft | 383 kts | 193° |
| 2026-05-06 22:23 | 37.82763 | -4.78484 | 27297 ft | 378 kts | 193° |
| 2026-05-06 22:23 | 37.80187 | -4.79060 | 26825 ft | 372 kts | 198° |
| 2026-05-06 22:23 | 37.77788 | -4.80151 | 26371 ft | 363 kts | 209° |
| 2026-05-06 22:23 | 37.75657 | -4.81803 | 25883 ft | 357 kts | 220° |
| 2026-05-06 22:24 | 37.73855 | -4.83919 | 25404 ft | 352 kts | 230° |
| 2026-05-06 22:24 | 37.72385 | -4.86377 | 24944 ft | 349 kts | 234° |
| 2026-05-06 22:24 | 37.70979 | -4.88855 | 24483 ft | 346 kts | 234° |
| 2026-05-06 22:24 | 37.69579 | -4.91308 | 24044 ft | 342 kts | 234° |
| 2026-05-06 22:25 | 37.68658 | -4.92915 | 23761 ft | 341 kts | 234° |
| 2026-05-06 22:25 | 37.67276 | -4.95325 | 23330 ft | 337 kts | 234° |
| 2026-05-06 22:25 | 37.65917 | -4.97691 | 23102 ft | 328 kts | 234° |
| 2026-05-06 22:25 | 37.64586 | -5.00007 | 22796 ft | 323 kts | 234° |
| 2026-05-06 22:26 | 37.63188 | -5.02195 | 22548 ft | 320 kts | 225° |
| 2026-05-06 22:26 | 37.61458 | -5.03959 | 22298 ft | 320 kts | 213° |
| 2026-05-06 22:26 | 37.59519 | -5.05342 | 22047 ft | 320 kts | 211° |
| 2026-05-06 22:26 | 37.57571 | -5.06705 | 21797 ft | 319 kts | 211° |
| 2026-05-06 22:27 | 37.55637 | -5.08066 | 21563 ft | 319 kts | 211° |
| 2026-05-06 22:27 | 37.53705 | -5.09429 | 21224 ft | 317 kts | 211° |
| 2026-05-06 22:27 | 37.51699 | -5.10585 | 20872 ft | 318 kts | 200° |
| 2026-05-06 22:27 | 37.49530 | -5.11128 | 20518 ft | 320 kts | 187° |
| 2026-05-06 22:28 | 37.47298 | -5.11137 | 20162 ft | 321 kts | 182° |
| 2026-05-06 22:28 | 37.45070 | -5.11094 | 19805 ft | 319 kts | 182° |
| 2026-05-06 22:28 | 37.42854 | -5.11055 | 19450 ft | 318 kts | 182° |
| 2026-05-06 22:28 | 37.40648 | -5.11018 | 19099 ft | 316 kts | 182° |
| 2026-05-06 22:29 | 37.38457 | -5.10741 | 18754 ft | 319 kts | 170° |
| 2026-05-06 22:29 | 37.36356 | -5.09814 | 18397 ft | 322 kts | 156° |
| 2026-05-06 22:29 | 37.34412 | -5.08400 | 18038 ft | 323 kts | 153° |
| 2026-05-06 22:29 | 37.32489 | -5.06961 | 17679 ft | 321 kts | 153° |
| 2026-05-06 22:30 | 37.30572 | -5.05533 | 17323 ft | 319 kts | 153° |
| 2026-05-06 22:30 | 37.28686 | -5.04135 | 16963 ft | 317 kts | 153° |
| 2026-05-06 22:30 | 37.26707 | -5.02983 | 16624 ft | 311 kts | 166° |
| 2026-05-06 22:30 | 37.24634 | -5.02450 | 16287 ft | 307 kts | 178° |
| 2026-05-06 22:31 | 37.22511 | -5.02394 | 15950 ft | 305 kts | 182° |
| 2026-05-06 22:31 | 37.20399 | -5.02371 | 15614 ft | 303 kts | 181° |
| 2026-05-06 22:31 | 37.18291 | -5.02343 | 15279 ft | 302 kts | 181° |
| 2026-05-06 22:31 | 37.16194 | -5.02314 | 14953 ft | 301 kts | 181° |
| 2026-05-06 22:32 | 37.14105 | -5.02286 | 14629 ft | 300 kts | 181° |
| 2026-05-06 22:32 | 37.12025 | -5.02258 | 14291 ft | 299 kts | 181° |
| 2026-05-06 22:32 | 37.09963 | -5.02227 | 14061 ft | 292 kts | 181° |
| 2026-05-06 22:32 | 37.07966 | -5.02194 | 13942 ft | 282 kts | 181° |
| 2026-05-06 22:33 | 37.06023 | -5.02163 | 13702 ft | 277 kts | 181° |
| 2026-05-06 22:33 | 37.04111 | -5.02134 | 13463 ft | 274 kts | 181° |
| 2026-05-06 22:33 | 37.02215 | -5.02106 | 13137 ft | 272 kts | 180° |
| 2026-05-06 22:33 | 37.00318 | -5.02077 | 12754 ft | 273 kts | 180° |
| 2026-05-06 22:34 | 36.98434 | -5.02049 | 12482 ft | 270 kts | 180° |
| 2026-05-06 22:34 | 36.96559 | -5.02021 | 12206 ft | 267 kts | 179° |
| 2026-05-06 22:34 | 36.94780 | -5.01546 | 11930 ft | 264 kts | 153° |
| 2026-05-06 22:34 | 36.93469 | -4.99968 | 11540 ft | 266 kts | 119° |
| 2026-05-06 22:35 | 36.93040 | -4.97730 | 11153 ft | 268 kts | 91° |
| 2026-05-06 22:35 | 36.93059 | -4.95396 | 10771 ft | 268 kts | 90° |
| 2026-05-06 22:35 | 36.93287 | -4.93137 | 10381 ft | 269 kts | 68° |
| 2026-05-06 22:35 | 36.94378 | -4.91287 | 10035 ft | 267 kts | 37° |
| 2026-05-06 22:36 | 36.96061 | -4.90435 | 9805 ft | 259 kts | 5° |
| 2026-05-06 22:36 | 36.97866 | -4.90397 | 9735 ft | 261 kts | 359° |
| 2026-05-06 22:36 | 36.99692 | -4.90416 | 9629 ft | 265 kts | 360° |
| 2026-05-06 22:36 | 37.01537 | -4.90439 | 9534 ft | 266 kts | 360° |
| 2026-05-06 22:37 | 37.03387 | -4.90464 | 9430 ft | 266 kts | 360° |
| 2026-05-06 22:37 | 37.05230 | -4.90488 | 9325 ft | 265 kts | 360° |
| 2026-05-06 22:37 | 37.07073 | -4.90510 | 9225 ft | 264 kts | 360° |
| 2026-05-06 22:37 | 37.08910 | -4.90531 | 9132 ft | 264 kts | 0° |
| 2026-05-06 22:38 | 37.10743 | -4.90554 | 9030 ft | 263 kts | 360° |
| 2026-05-06 22:38 | 37.12574 | -4.90579 | 8924 ft | 262 kts | 0° |
| 2026-05-06 22:38 | 37.14399 | -4.90603 | 8818 ft | 262 kts | 360° |
| 2026-05-06 22:38 | 37.16220 | -4.90627 | 8709 ft | 262 kts | 0° |
| 2026-05-06 22:39 | 37.18006 | -4.90346 | 8584 ft | 258 kts | 25° |
| 2026-05-06 22:39 | 37.19359 | -4.88978 | 8494 ft | 256 kts | 59° |
| 2026-05-06 22:39 | 37.19881 | -4.86861 | 8380 ft | 254 kts | 89° |
| 2026-05-06 22:39 | 37.19906 | -4.84664 | 8270 ft | 256 kts | 90° |
| 2026-05-06 22:40 | 37.19696 | -4.82469 | 8147 ft | 254 kts | 114° |
| 2026-05-06 22:40 | 37.18618 | -4.80793 | 8031 ft | 245 kts | 149° |
| 2026-05-06 22:40 | 37.17041 | -4.80189 | 7940 ft | 238 kts | 178° |
| 2026-05-06 22:40 | 37.15377 | -4.80169 | 7840 ft | 239 kts | 179° |
| 2026-05-06 22:41 | 37.12053 | -4.80146 | 7649 ft | 238 kts | 179° |
| 2026-05-06 22:41 | 37.10398 | -4.80131 | 7565 ft | 238 kts | 179° |
| 2026-05-06 22:41 | 37.08739 | -4.80113 | 7481 ft | 238 kts | 179° |
| 2026-05-06 22:42 | 37.07085 | -4.80094 | 7392 ft | 238 kts | 179° |
| 2026-05-06 22:42 | 37.05433 | -4.80075 | 7296 ft | 237 kts | 179° |
| 2026-05-06 22:42 | 37.03781 | -4.80057 | 7206 ft | 237 kts | 179° |
| 2026-05-06 22:42 | 37.02134 | -4.80041 | 7123 ft | 236 kts | 179° |
| 2026-05-06 22:43 | 37.00487 | -4.80024 | 7034 ft | 236 kts | 179° |
| 2026-05-06 22:43 | 36.98843 | -4.80006 | 6858 ft | 238 kts | 179° |
| 2026-05-06 22:43 | 36.97199 | -4.79986 | 6599 ft | 235 kts | 179° |
| 2026-05-06 22:43 | 36.95570 | -4.79968 | 6359 ft | 234 kts | 179° |
| 2026-05-06 22:44 | 36.93948 | -4.79947 | 6117 ft | 233 kts | 177° |
| 2026-05-06 22:44 | 36.92368 | -4.79586 | 5867 ft | 231 kts | 160° |
| 2026-05-06 22:44 | 36.90834 | -4.78906 | 5655 ft | 232 kts | 160° |
| 2026-05-06 22:44 | 36.89348 | -4.78259 | 5384 ft | 227 kts | 160° |
| 2026-05-06 22:45 | 36.87868 | -4.77607 | 5141 ft | 224 kts | 158° |
| 2026-05-06 22:45 | 36.86542 | -4.76611 | 4921 ft | 223 kts | 139° |
| 2026-05-06 22:45 | 36.85481 | -4.75206 | 4792 ft | 223 kts | 131° |
| 2026-05-06 22:45 | 36.84456 | -4.73757 | 4645 ft | 223 kts | 131° |
| 2026-05-06 22:46 | 36.83433 | -4.72314 | 4505 ft | 221 kts | 131° |
| 2026-05-06 22:46 | 36.82413 | -4.70877 | 4356 ft | 222 kts | 131° |
| 2026-05-06 22:46 | 36.81396 | -4.69445 | 4081 ft | 220 kts | 131° |
| 2026-05-06 22:46 | 36.80387 | -4.68025 | 3808 ft | 216 kts | 131° |
| 2026-05-06 22:47 | 36.79413 | -4.66652 | 3504 ft | 206 kts | 131° |
| 2026-05-06 22:47 | 36.78494 | -4.65358 | 3194 ft | 192 kts | 131° |
| 2026-05-06 22:47 | 36.77640 | -4.64157 | 2954 ft | 177 kts | 131° |
| 2026-05-06 22:47 | 36.76852 | -4.63102 | 2732 ft | 163 kts | 136° |
| 2026-05-06 22:48 | 36.76125 | -4.62087 | 2501 ft | 152 kts | 129° |
| 2026-05-06 22:48 | 36.75450 | -4.61106 | 2273 ft | 147 kts | 130° |
| 2026-05-06 22:48 | 36.74784 | -4.60155 | 2063 ft | 145 kts | 130° |
| 2026-05-06 22:48 | 36.74120 | -4.59216 | 1858 ft | 144 kts | 130° |
| 2026-05-06 22:49 | 36.73460 | -4.58286 | 1653 ft | 143 kts | 131° |
| 2026-05-06 22:49 | 36.72804 | -4.57362 | 1450 ft | 142 kts | 131° |
| 2026-05-06 22:49 | 36.72145 | -4.56450 | 1245 ft | 142 kts | 131° |
| 2026-05-06 22:49 | 36.71492 | -4.55537 | 1013 ft | 140 kts | 130° |
| 2026-05-06 22:50 | 36.70857 | -4.54638 | 805 ft | 140 kts | 129° |
| 2026-05-06 22:50 | 36.70220 | -4.53724 | 600 ft | 139 kts | 130° |
| 2026-05-06 22:50 | 36.69580 | -4.52819 | 405 ft | 139 kts | 131° |
| 2026-05-06 22:50 | 36.68932 | -4.51928 | 232 ft | 139 kts | 131° |
| 2026-05-06 22:51 | 36.68286 | -4.51034 | 67 ft | 137 kts | 131° |
| 2026-05-06 22:51 | 36.67770 | -4.50301 | 54 ft | 72 kts | 131° |
| 2026-05-06 22:51 | 36.67559 | -4.50000 | 52 ft | 41 kts | 131° |
| 2026-05-06 22:51 | 36.67364 | -4.49731 | 48 ft | 41 kts | 132° |
| 2026-05-06 22:52 | 36.67188 | -4.49484 | 45 ft | 31 kts | 125° |
| 2026-05-06 22:52 | 36.67115 | -4.49272 | 46 ft | 21 kts | 103° |
| 2026-05-06 22:52 | 36.67100 | -4.49172 | 43 ft | 11 kts | 100° |
| 2026-05-06 22:52 | 36.67121 | -4.49078 | 39 ft | 10 kts | 50° |
| 2026-05-06 22:53 | 36.67157 | -4.49043 | 40 ft | 5 kts | 29° |
| 2026-05-06 22:53 | 36.67178 | -4.49044 | 42 ft | 3 kts | 348° |
| 2026-05-06 22:53 | 36.67204 | -4.49073 | 42 ft | 7 kts | 311° |
| 2026-05-06 22:53 | 36.67251 | -4.49139 | 41 ft | 13 kts | 311° |
| 2026-05-06 22:54 | 36.67307 | -4.49217 | 39 ft | 12 kts | 312° |
| 2026-05-06 22:54 | 36.67367 | -4.49217 | 39 ft | 7 kts | 44° |
| 2026-05-06 22:54 | 36.67397 | -4.49180 | 42 ft | 4 kts | 39° |
| 2026-05-06 22:54 | 36.67416 | -4.49185 | 42 ft | 4 kts | 347° |
| 2026-05-06 22:55 | 36.67436 | -4.49195 | 42 ft | 2 kts | 333° |
| 2026-05-06 22:55 | 36.67447 | -4.49202 | 42 ft | 1 kts | 333° |
| 2026-05-06 22:55 | 36.67450 | -4.49204 | 42 ft | 0 kts | 333° |
| 2026-05-06 22:55 | 36.67454 | -4.49206 | 39 ft | 1 kts | 332° |
| 2026-05-06 22:56 | 36.67460 | -4.49211 | 42 ft | 1 kts | 332° |